map of KHYI home
KHYI - Airport
Location
City:  Austin, Texas, United States
Name:San Marcos Regional
ICAO:KHYI
FAA LID:HYI

Details
Type:Airport (Airfield)
Use:Public/Civil
Latitude:2953'34"N (29.892750)
Longitude:9751'47"W (-97.862999)
Datum:WGS 1984
Elevation:594 ft (181 m)
Variation:3.79E (WMM2015v2 magnetic declination)
-0.10 annual change
Runways:3
Longest:6330 × 100 ft (1929 × 30.5 m), paved

Time
Time Zone:UTC-6 (DST-5)
Local Time:

Weather
METAR:KHYI 041404Z 19006KT 1 3/4SM BR BKN003 OVC007 19/18 A2992 RMK AO2

Related Locations
Nearby:
Farthest:RRG: 11075 mi / 17824 km
Plaine Corail [Sir Gatan Duval Airport (Plaine Corail Airport)], Rodrigues Island, MU

Find:

   beyond  
but within

Other Information
Maps:
NOTAMs:
Links:
Sources:

  
  • flag of United States
  • flag of Texas
  

Airport Diagram

Airport diagram for KHYI

Airport diagram PDF from FAA

Sectional Chart

Flight Planning
at skyvector.com

Satellite Image

Google Maps Satellite view

 

Copyright © 2004-2019 Karl L. Swartz. All rights reserved.
The Great Circle Mapper name and logo are trademarks of the Great Circle Mapper.
All other trademarks mentioned herein belong to their respective owners.
Please see credits for attibutions and further copyright information.

  Follow gcmap on Facebook Follow gcmap on Twitter GCmap on LinkedIn

hCard Microformat

Geo Microformat